Time;durP1;ratioP1;P1;durP2;ratioP2;P2;SDS_P1;SDS_P2;PMS_P1;PMS_P2;Temp;Humidity;BMP_temperature;BMP_pressure;BME280_temperature;BME280_humidity;BME280_pressure;Samples;Min_cycle;Max_cycle;Signal;HPM_P1;HPM_P2
2022/09/16 00:00:14;;;;;;;2.70;2.45;;;21.30;63.40;;;;;;5042862;28;20229;-74
2022/09/16 00:02:40;;;;;;;2.80;2.60;;;21.30;63.40;;;;;;5059386;28;20205;-74
2022/09/16 00:05:08;;;;;;;2.35;2.20;;;21.30;63.40;;;;;;5058431;28;20217;-74
2022/09/16 00:07:35;;;;;;;3.35;2.55;;;21.30;63.40;;;;;;5058588;28;20198;-75
2022/09/16 00:10:03;;;;;;;2.63;2.40;;;21.30;63.40;;;;;;5058471;28;20568;-74
2022/09/16 00:12:31;;;;;;;2.60;2.40;;;21.30;63.40;;;;;;5058278;28;20277;-74
2022/09/16 00:14:58;;;;;;;2.70;2.50;;;21.30;63.40;;;;;;5058239;28;20747;-73
2022/09/16 00:17:25;;;;;;;3.15;2.83;;;21.30;63.30;;;;;;5041842;28;20309;-73
2022/09/16 00:19:53;;;;;;;2.50;2.30;;;21.30;63.30;;;;;;5058278;28;20309;-75
2022/09/16 00:22:20;;;;;;;3.67;2.50;;;21.30;63.20;;;;;;5058293;28;20545;-74
2022/09/16 00:24:48;;;;;;;3.00;2.30;;;21.30;63.20;;;;;;5058716;28;20198;-73
2022/09/16 00:27:15;;;;;;;2.60;2.40;;;21.30;63.20;;;;;;5059479;28;20580;-74
2022/09/16 00:29:43;;;;;;;2.40;2.20;;;21.30;63.20;;;;;;5041928;28;20199;-74
2022/09/16 00:32:10;;;;;;;4.82;2.38;;;21.30;63.20;;;;;;5058330;28;20194;-74
2022/09/16 00:34:37;;;;;;;2.45;2.25;;;21.40;63.20;;;;;;5058142;28;20648;-74
2022/09/16 00:37:07;;;;;;;2.40;2.20;;;21.40;63.20;;;;;;5058076;28;20226;-74
2022/09/16 00:39:34;;;;;;;2.53;2.33;;;21.40;63.20;;;;;;5058117;28;20225;-74
2022/09/16 00:42:01;;;;;;;2.83;2.55;;;21.40;63.10;;;;;;5058477;28;20248;-74
2022/09/16 00:44:52;;;;;;;3.50;2.63;;;21.40;63.10;;;;;;5058338;28;20293;-73
2022/09/16 00:47:21;;;;;;;2.70;2.50;;;21.40;63.10;;;;;;5057976;28;20222;-75
2022/09/16 00:49:48;;;;;;;3.33;2.30;;;21.40;63.10;;;;;;5058196;28;20187;-74
2022/09/16 00:52:15;;;;;;;2.78;2.30;;;21.40;63.10;;;;;;5057565;28;20616;-74
2022/09/16 00:54:42;;;;;;;2.50;2.30;;;21.30;63.00;;;;;;5057528;28;20720;-74
2022/09/16 00:57:10;;;;;;;2.72;2.38;;;21.40;63.00;;;;;;5075317;28;20639;-74
2022/09/16 00:59:37;;;;;;;3.28;2.40;;;21.40;63.00;;;;;;5057469;28;20759;-74
2022/09/16 01:02:07;;;;;;;2.38;2.20;;;21.30;62.90;;;;;;5057791;28;20187;-73
2022/09/16 01:04:37;;;;;;;2.45;2.25;;;21.40;63.00;;;;;;5057932;28;20206;-75
2022/09/16 01:07:04;;;;;;;3.05;2.45;;;21.40;63.00;;;;;;5057346;28;20225;-74
2022/09/16 01:09:32;;;;;;;2.55;2.35;;;21.30;62.80;;;;;;5057422;28;20225;-74
2022/09/16 01:11:59;;;;;;;2.70;2.50;;;21.30;62.80;;;;;;5074979;28;20282;-74
2022/09/16 01:17:15;;;;;;;2.30;2.20;;;21.30;62.90;;;;;;5057029;28;20214;-74
2022/09/16 01:20:01;;;;;;;2.60;2.38;;;21.30;62.80;;;;;;5075063;28;20548;-74
2022/09/16 01:22:38;;;;;;;2.25;2.00;;;21.30;62.80;;;;;;5056878;28;20199;-74
2022/09/16 01:25:10;;;;;;;2.45;2.25;;;21.40;62.90;;;;;;5056735;28;20644;-74
2022/09/16 01:27:50;;;;;;;2.17;2.00;;;21.30;62.80;;;;;;5056826;28;20281;-75
2022/09/16 01:30:36;;;;;;;2.30;2.20;;;21.30;62.80;;;;;;5057675;28;20187;-73
2022/09/16 01:33:04;;;;;;;2.50;2.30;;;21.30;62.80;;;;;;5056701;28;20199;-74
2022/09/16 01:35:48;;;;;;;2.55;2.35;;;21.30;62.80;;;;;;5056606;28;20229;-74
2022/09/16 01:38:26;;;;;;;2.65;2.45;;;21.30;62.80;;;;;;5041290;28;20265;-73
2022/09/16 01:40:56;;;;;;;2.60;2.40;;;21.30;62.80;;;;;;5055645;28;20214;-74
2022/09/16 01:43:25;;;;;;;2.35;2.15;;;21.30;62.80;;;;;;5057041;28;20187;-74
2022/09/16 01:45:56;;;;;;;2.40;2.20;;;21.30;62.80;;;;;;5057008;28;20630;-74
2022/09/16 01:48:26;;;;;;;2.50;2.30;;;21.30;62.70;;;;;;5056403;28;20627;-74
2022/09/16 01:50:56;;;;;;;2.72;2.28;;;21.30;62.80;;;;;;5074457;28;20212;-73
2022/09/16 01:53:24;;;;;;;2.75;2.55;;;21.30;62.70;;;;;;5056311;28;20210;-74
2022/09/16 01:55:54;;;;;;;2.50;2.30;;;21.30;62.70;;;;;;5074119;28;20214;-74
2022/09/16 01:58:22;;;;;;;2.30;2.13;;;21.30;63.50;;;;;;5056248;28;20199;-74
2022/09/16 02:00:50;;;;;;;2.30;2.10;;;21.30;62.70;;;;;;5056063;28;20225;-74
2022/09/16 02:03:20;;;;;;;2.58;2.20;;;21.30;62.70;;;;;;5056563;28;20203;-74
2022/09/16 02:05:48;;;;;;;2.72;2.30;;;21.30;62.60;;;;;;5056097;28;20221;-74
2022/09/16 02:08:17;;;;;;;2.30;2.10;;;21.30;62.60;;;;;;5056284;28;20572;-74
2022/09/16 02:10:46;;;;;;;2.40;2.20;;;21.30;62.60;;;;;;5056076;28;20286;-74
2022/09/16 02:13:16;;;;;;;3.83;2.40;;;21.30;62.60;;;;;;5055985;28;20201;-74
2022/09/16 02:15:43;;;;;;;2.60;2.40;;;21.30;62.60;;;;;;5056086;28;20214;-73
2022/09/16 02:18:12;;;;;;;2.42;2.22;;;21.30;62.60;;;;;;5056030;28;20198;-74
2022/09/16 02:20:42;;;;;;;2.53;2.33;;;21.30;62.60;;;;;;5056719;28;20653;-74
2022/09/16 02:23:12;;;;;;;2.65;2.45;;;21.30;62.60;;;;;;5056093;28;20179;-74
2022/09/16 02:25:39;;;;;;;2.40;2.17;;;21.20;62.50;;;;;;5056051;28;20284;-74
2022/09/16 02:28:10;;;;;;;2.58;2.38;;;21.20;62.50;;;;;;5073758;28;20205;-74
2022/09/16 02:30:37;;;;;;;2.55;2.28;;;21.20;62.50;;;;;;5056005;28;20222;-73
2022/09/16 02:33:07;;;;;;;2.53;2.33;;;21.20;62.50;;;;;;5055782;28;20723;-74
2022/09/16 02:35:35;;;;;;;2.40;2.20;;;21.20;62.50;;;;;;5055807;28;20226;-74
2022/09/16 02:38:04;;;;;;;2.25;2.05;;;21.30;63.50;;;;;;5055991;28;20195;-74
2022/09/16 02:40:34;;;;;;;2.55;2.35;;;21.20;62.50;;;;;;5055912;28;20210;-74
2022/09/16 02:43:01;;;;;;;2.50;2.30;;;21.20;62.50;;;;;;5056576;28;20290;-74
2022/09/16 02:45:33;;;;;;;2.30;2.10;;;21.20;62.50;;;;;;5055959;28;20218;-75
2022/09/16 02:48:02;;;;;;;3.58;2.20;;;21.20;62.50;;;;;;5055639;28;20206;-74
2022/09/16 02:50:30;;;;;;;2.72;2.45;;;21.20;62.50;;;;;;5056004;28;20207;-74
2022/09/16 02:52:59;;;;;;;2.30;2.17;;;21.20;62.50;;;;;;5058846;28;20209;-74
2022/09/16 02:55:34;;;;;;;2.45;2.20;;;21.20;62.40;;;;;;5059752;28;20582;-74
2022/09/16 02:58:01;;;;;;;2.53;2.33;;;21.20;62.50;;;;;;5059703;28;20277;-74
2022/09/16 03:00:28;;;;;;;2.40;2.20;;;21.20;62.40;;;;;;5061420;28;20236;-74
2022/09/16 03:02:55;;;;;;;2.70;2.50;;;21.20;62.40;;;;;;5060741;28;20199;-74
2022/09/16 03:05:27;;;;;;;2.67;2.10;;;21.20;62.30;;;;;;5059497;28;20222;-75
2022/09/16 03:07:54;;;;;;;2.40;2.20;;;21.20;62.40;;;;;;5059713;28;20237;-73
2022/09/16 03:10:22;;;;;;;2.30;2.10;;;21.20;62.30;;;;;;5042997;28;20225;-75
2022/09/16 03:12:55;;;;;;;2.38;2.20;;;21.20;62.20;;;;;;5059451;28;20657;-74
2022/09/16 03:15:43;;;;;;;2.50;2.30;;;21.20;62.20;;;;;;5060017;28;20223;-74
2022/09/16 03:18:43;;;;;;;2.65;2.45;;;21.20;62.00;;;;;;5077148;28;20549;-74
2022/09/16 03:21:13;;;;;;;2.55;2.35;;;21.20;61.90;;;;;;5059155;28;20222;-74
2022/09/16 03:23:44;;;;;;;2.38;2.17;;;21.20;61.90;;;;;;5059146;28;20198;-73
2022/09/16 03:26:15;;;;;;;2.30;2.10;;;21.30;61.80;;;;;;5059002;28;20309;-73
2022/09/16 03:28:46;;;;;;;3.80;2.35;;;21.40;61.60;;;;;;5059454;28;20175;-73
2022/09/16 03:31:18;;;;;;;2.30;2.10;;;21.50;61.40;;;;;;5059123;28;20218;-74
2022/09/16 03:33:47;;;;;;;2.42;2.22;;;21.50;61.10;;;;;;5059083;28;20203;-74
2022/09/16 03:36:18;;;;;;;2.25;2.08;;;21.60;61.00;;;;;;5058893;28;20218;-74
2022/09/16 03:38:45;;;;;;;2.35;2.17;;;21.60;60.70;;;;;;5058874;28;20653;-74
2022/09/16 03:41:12;;;;;;;2.22;2.13;;;21.70;60.50;;;;;;5058774;28;20264;-74
2022/09/16 03:43:39;;;;;;;3.13;2.20;;;21.70;60.20;;;;;;5058897;28;20641;-74
2022/09/16 03:46:11;;;;;;;2.33;2.13;;;21.70;60.20;;;;;;5058937;28;20223;-74
2022/09/16 03:48:38;;;;;;;2.45;2.25;;;21.70;60.20;;;;;;5076902;28;20217;-74
2022/09/16 03:51:05;;;;;;;2.63;2.05;;;21.80;60.20;;;;;;5058857;28;20597;-74
2022/09/16 03:53:32;;;;;;;2.22;2.13;;;21.70;59.90;;;;;;5058619;28;20202;-74
2022/09/16 03:55:59;;;;;;;2.10;2.00;;;21.80;59.80;;;;;;5058703;28;20703;-75
2022/09/16 03:58:26;;;;;;;2.30;2.10;;;21.90;59.80;;;;;;5058848;28;20210;-74
2022/09/16 04:00:54;;;;;;;2.20;2.08;;;21.90;59.60;;;;;;5042521;28;20619;-74
2022/09/16 04:03:22;;;;;;;2.30;2.10;;;21.90;59.50;;;;;;5058339;28;20256;-73
2022/09/16 04:05:52;;;;;;;2.08;1.98;;;22.00;59.50;;;;;;5059791;28;20215;-75
2022/09/16 04:08:20;;;;;;;2.08;1.98;;;22.00;59.30;;;;;;5058909;28;20205;-75
2022/09/16 04:10:53;;;;;;;2.10;2.00;;;22.00;59.20;;;;;;5042261;28;20199;-75
2022/09/16 04:13:20;;;;;;;2.63;2.42;;;22.00;59.10;;;;;;5058546;28;20191;-74
2022/09/16 04:15:47;;;;;;;2.08;1.98;;;22.00;59.10;;;;;;5058147;28;20268;-75
2022/09/16 04:18:14;;;;;;;2.10;2.00;;;22.00;59.00;;;;;;5058187;28;20248;-75
2022/09/16 04:20:43;;;;;;;2.35;1.98;;;22.10;59.10;;;;;;5058276;28;20309;-75
2022/09/16 04:23:10;;;;;;;2.83;2.30;;;22.00;59.00;;;;;;5076392;28;20229;-75
2022/09/16 04:25:39;;;;;;;2.55;2.20;;;22.10;59.00;;;;;;5058531;28;20597;-75
2022/09/16 04:28:06;;;;;;;2.22;2.00;;;22.10;59.10;;;;;;5057997;28;20281;-75
2022/09/16 04:30:33;;;;;;;2.10;2.00;;;22.00;59.00;;;;;;5041272;28;20680;-74
2022/09/16 04:33:01;;;;;;;1.90;1.80;;;22.00;59.00;;;;;;5058289;28;20230;-75
2022/09/16 04:35:27;;;;;;;2.50;2.30;;;22.00;59.10;;;;;;5058219;28;20734;-74
2022/09/16 04:37:56;;;;;;;3.17;2.47;;;22.00;59.10;;;;;;5076318;28;20191;-74
2022/09/16 04:40:22;;;;;;;2.60;2.15;;;21.90;58.90;;;;;;5057761;28;20214;-75
2022/09/16 04:42:50;;;;;;;2.03;1.90;;;21.90;59.00;;;;;;5057976;28;20293;-75
2022/09/16 04:45:17;;;;;;;2.67;2.30;;;21.90;59.20;;;;;;5058157;28;20267;-74
2022/09/16 04:47:44;;;;;;;2.28;2.08;;;21.80;59.20;;;;;;5057781;28;20210;-75
2022/09/16 04:50:11;;;;;;;3.33;2.20;;;21.80;59.50;;;;;;5057743;28;20217;-74
2022/09/16 04:52:38;;;;;;;3.05;2.38;;;21.80;59.90;;;;;;5057935;28;20190;-75
2022/09/16 04:55:07;;;;;;;2.58;1.90;;;21.80;60.10;;;;;;5057553;28;20665;-74
2022/09/16 04:57:34;;;;;;;4.22;2.00;;;21.70;60.40;;;;;;5058248;28;20290;-75
2022/09/16 05:00:03;;;;;;;3.85;2.00;;;21.80;60.40;;;;;;5057827;28;20653;-75
2022/09/16 05:02:30;;;;;;;4.18;2.30;;;21.80;60.30;;;;;;5057895;28;20730;-75
2022/09/16 05:04:57;;;;;;;2.10;2.00;;;21.70;60.20;;;;;;5057849;28;20209;-76
2022/09/16 05:07:24;;;;;;;1.88;1.75;;;21.80;60.40;;;;;;5025261;28;20636;-75
2022/09/16 05:09:52;;;;;;;4.05;2.13;;;21.70;60.20;;;;;;5057540;28;20191;-74
2022/09/16 05:12:21;;;;;;;2.08;1.92;;;21.70;60.60;;;;;;5058053;28;20226;-75
2022/09/16 05:14:47;;;;;;;3.92;1.98;;;21.70;60.50;;;;;;5057722;28;20238;-75
2022/09/16 05:17:14;;;;;;;2.00;1.90;;;21.70;59.50;;;;;;5057278;28;20214;-75
2022/09/16 05:19:41;;;;;;;2.50;2.30;;;21.70;59.20;;;;;;5057191;28;20223;-75
2022/09/16 05:22:09;;;;;;;2.10;1.90;;;21.70;59.20;;;;;;5040518;28;20215;-75
2022/09/16 05:24:36;;;;;;;2.90;1.90;;;21.70;59.20;;;;;;5057240;28;20195;-75
2022/09/16 05:27:03;;;;;;;2.00;1.85;;;21.70;59.20;;;;;;5056731;28;20244;-74
2022/09/16 05:29:31;;;;;;;2.70;1.75;;;21.70;59.10;;;;;;5057792;28;20203;-75
2022/09/16 05:31:58;;;;;;;2.13;1.70;;;21.60;59.10;;;;;;5057622;28;20195;-75
2022/09/16 05:34:27;;;;;;;3.22;1.90;;;21.60;59.10;;;;;;5056930;28;20260;-74
2022/09/16 05:36:54;;;;;;;2.83;1.90;;;21.50;59.00;;;;;;5057297;28;20218;-75
2022/09/16 05:39:21;;;;;;;2.28;2.08;;;21.60;59.10;;;;;;5056692;28;20289;-74
2022/09/16 05:41:48;;;;;;;4.28;2.03;;;21.50;59.10;;;;;;5057646;28;20218;-75
2022/09/16 05:44:15;;;;;;;3.15;2.00;;;21.60;59.80;;;;;;5074700;28;20187;-75
2022/09/16 05:46:43;;;;;;;3.53;2.03;;;21.50;60.00;;;;;;5056710;28;20234;-75
2022/09/16 05:49:12;;;;;;;2.10;1.90;;;21.50;60.00;;;;;;5057632;28;20207;-74
2022/09/16 05:51:40;;;;;;;2.42;2.00;;;21.50;60.00;;;;;;5057042;28;20205;-74
2022/09/16 05:54:07;;;;;;;2.33;2.00;;;21.50;60.00;;;;;;5040029;28;20205;-75
2022/09/16 05:56:34;;;;;;;2.30;2.10;;;21.50;60.00;;;;;;5056433;28;20218;-75
2022/09/16 05:59:01;;;;;;;2.55;1.90;;;21.40;60.00;;;;;;5039995;28;20194;-75
2022/09/16 06:01:30;;;;;;;1.95;1.83;;;21.40;60.00;;;;;;5056361;28;20215;-74
2022/09/16 06:04:01;;;;;;;2.47;1.80;;;21.40;60.00;;;;;;5056359;28;20617;-74
2022/09/16 06:06:29;;;;;;;1.80;1.70;;;21.40;60.00;;;;;;5056178;28;20272;-75
2022/09/16 06:08:57;;;;;;;5.00;1.83;;;21.40;60.70;;;;;;5056447;28;20202;-74
2022/09/16 06:11:25;;;;;;;2.45;1.92;;;21.40;60.00;;;;;;5056225;28;20641;-74
2022/09/16 06:13:55;;;;;;;3.58;1.95;;;21.40;60.00;;;;;;5073939;28;20718;-75
2022/09/16 06:16:24;;;;;;;2.03;1.83;;;21.50;60.20;;;;;;5056280;28;20230;-75
2022/09/16 06:18:51;;;;;;;2.95;1.95;;;21.50;60.10;;;;;;5056121;28;20226;-75
2022/09/16 06:21:19;;;;;;;2.40;2.17;;;21.60;60.10;;;;;;5039270;28;20708;-75
2022/09/16 06:23:46;;;;;;;2.33;2.00;;;21.60;60.00;;;;;;5055929;28;20568;-75
2022/09/16 06:26:15;;;;;;;3.25;1.90;;;21.60;59.80;;;;;;5055450;28;20634;-74
2022/09/16 06:28:41;;;;;;;3.20;2.10;;;21.60;59.80;;;;;;5056022;28;20194;-75
2022/09/16 06:31:10;;;;;;;3.95;2.20;;;21.60;59.60;;;;;;5056072;28;20288;-75
2022/09/16 06:33:38;;;;;;;2.00;1.70;;;21.70;59.60;;;;;;5055901;28;20252;-75
2022/09/16 06:36:05;;;;;;;2.03;1.88;;;21.60;59.50;;;;;;5056326;28;20561;-74
2022/09/16 06:38:33;;;;;;;2.35;1.80;;;21.60;59.50;;;;;;5073780;28;20244;-75
2022/09/16 06:41:00;;;;;;;2.15;1.95;;;21.70;59.50;;;;;;5055992;28;20219;-75
2022/09/16 06:43:28;;;;;;;1.85;1.75;;;21.70;59.60;;;;;;5055883;28;20199;-75
2022/09/16 06:45:59;;;;;;;2.13;1.92;;;21.70;59.50;;;;;;5055821;28;20215;-74
2022/09/16 06:48:26;;;;;;;3.72;1.92;;;21.70;59.50;;;;;;5055583;28;20676;-74
2022/09/16 06:51:00;;;;;;;2.80;1.98;;;21.70;59.50;;;;;;5039250;28;20195;-75
2022/09/16 06:53:27;;;;;;;2.80;2.28;;;21.60;59.30;;;;;;5056080;28;20202;-74
2022/09/16 06:55:55;;;;;;;2.03;1.92;;;21.60;59.30;;;;;;5055796;28;20226;-74
2022/09/16 06:58:22;;;;;;;2.30;2.10;;;21.70;59.40;;;;;;5055639;28;20202;-75
2022/09/16 07:00:50;;;;;;;2.35;2.15;;;21.60;59.30;;;;;;5055632;28;20243;-75
2022/09/16 07:03:17;;;;;;;2.60;1.88;;;21.60;59.30;;;;;;5055598;28;20252;-75
2022/09/16 07:05:44;;;;;;;4.00;1.77;;;21.60;59.20;;;;;;5055841;28;20218;-74
2022/09/16 07:08:11;;;;;;;2.17;1.77;;;21.60;59.30;;;;;;5055678;28;20210;-74
2022/09/16 07:10:38;;;;;;;2.00;1.80;;;21.60;59.20;;;;;;5055706;28;20256;-74
2022/09/16 07:13:07;;;;;;;2.03;1.90;;;21.60;59.10;;;;;;5056563;28;20198;-75
2022/09/16 07:15:34;;;;;;;3.85;2.10;;;21.60;59.20;;;;;;5055733;28;20309;-75
2022/09/16 07:18:01;;;;;;;2.53;1.77;;;21.60;59.10;;;;;;5039405;28;20256;-75
2022/09/16 07:20:28;;;;;;;2.45;2.10;;;21.50;59.00;;;;;;5055343;28;20199;-74
2022/09/16 07:22:55;;;;;;;2.55;1.80;;;21.60;59.10;;;;;;5055326;28;20704;-75
2022/09/16 07:25:22;;;;;;;2.90;2.00;;;21.50;58.90;;;;;;5055487;28;20227;-75
2022/09/16 07:27:49;;;;;;;2.45;2.00;;;21.50;58.90;;;;;;5055377;28;20205;-75
2022/09/16 07:30:18;;;;;;;2.58;1.70;;;21.50;59.10;;;;;;5055323;28;20195;-75
2022/09/16 07:32:44;;;;;;;2.42;1.73;;;21.50;59.10;;;;;;5055368;28;20198;-74
2022/09/16 07:35:11;;;;;;;3.55;2.20;;;21.50;58.90;;;;;;5073121;28;20191;-75
2022/09/16 07:37:38;;;;;;;3.45;1.83;;;21.50;58.80;;;;;;5055335;28;20209;-75
2022/09/16 07:40:06;;;;;;;2.78;2.05;;;21.50;58.70;;;;;;5058478;28;20203;-74
2022/09/16 07:42:33;;;;;;;2.63;2.00;;;21.60;58.70;;;;;;5058811;28;20214;-75
2022/09/16 07:45:00;;;;;;;2.65;1.90;;;21.60;58.60;;;;;;5058771;28;20207;-75
2022/09/16 07:47:29;;;;;;;2.40;2.05;;;21.60;58.20;;;;;;5058671;28;20716;-74
2022/09/16 07:49:56;;;;;;;3.10;2.28;;;21.60;58.50;;;;;;5058777;28;20752;-74
2022/09/16 07:52:27;;;;;;;3.15;2.10;;;21.60;58.40;;;;;;5059871;28;20198;-74
2022/09/16 07:54:55;;;;;;;3.35;1.80;;;21.60;58.30;;;;;;5076697;28;20571;-74
2022/09/16 07:57:21;;;;;;;2.15;1.95;;;21.60;58.10;;;;;;5058779;28;20258;-74
2022/09/16 07:59:48;;;;;;;2.72;2.30;;;21.60;58.00;;;;;;5042255;28;20199;-74
2022/09/16 08:02:16;;;;;;;2.97;2.00;;;21.70;58.00;;;;;;5058593;28;20305;-74
2022/09/16 08:04:44;;;;;;;2.50;2.15;;;21.60;58.00;;;;;;5058948;28;20199;-74
2022/09/16 08:07:11;;;;;;;3.45;2.08;;;21.60;58.00;;;;;;5058268;28;20638;-74
2022/09/16 08:09:38;;;;;;;3.15;2.30;;;21.60;57.80;;;;;;5058317;28;20210;-74
2022/09/16 08:12:09;;;;;;;5.20;2.30;;;21.60;57.80;;;;;;5059411;28;20201;-75
2022/09/16 08:14:36;;;;;;;2.88;2.03;;;21.60;58.00;;;;;;5058716;28;20191;-74
2022/09/16 08:17:04;;;;;;;2.17;1.98;;;21.60;58.00;;;;;;5058285;28;20218;-75
2022/09/16 08:19:31;;;;;;;2.45;2.13;;;21.60;58.20;;;;;;5058454;28;20230;-75
2022/09/16 08:22:00;;;;;;;2.40;2.20;;;21.60;58.40;;;;;;5058515;28;20226;-75
2022/09/16 08:24:26;;;;;;;2.42;2.22;;;21.60;58.10;;;;;;5059493;28;20199;-74
2022/09/16 08:26:53;;;;;;;2.00;1.90;;;21.70;58.20;;;;;;5058567;28;20214;-75
2022/09/16 08:29:21;;;;;;;2.38;2.17;;;21.70;58.90;;;;;;5058234;28;20293;-74
2022/09/16 08:31:48;;;;;;;2.33;1.90;;;21.70;58.20;;;;;;5041928;28;20191;-75
2022/09/16 08:34:16;;;;;;;3.55;1.90;;;21.70;58.10;;;;;;5058205;28;20585;-74
2022/09/16 08:36:42;;;;;;;2.00;1.80;;;21.70;58.10;;;;;;5057877;28;20218;-75
2022/09/16 08:39:11;;;;;;;2.65;1.70;;;21.70;58.10;;;;;;5057936;28;20195;-75
2022/09/16 08:42:20;;;;;;;1.90;1.80;;;21.80;58.40;;;;;;5058161;28;20284;-75
2022/09/16 08:44:50;;;;;;;2.47;2.00;;;21.80;58.10;;;;;;5042003;28;20294;-75
2022/09/16 08:47:27;;;;;;;3.15;1.90;;;21.90;58.00;;;;;;5057780;28;20218;-75
2022/09/16 08:49:54;;;;;;;2.40;2.20;;;21.90;57.90;;;;;;5057375;28;20209;-76
2022/09/16 08:52:27;;;;;;;2.47;2.10;;;22.00;57.80;;;;;;5057571;28;20187;-75
2022/09/16 08:54:57;;;;;;;2.08;1.98;;;22.10;57.70;;;;;;5057609;28;20198;-75
2022/09/16 08:57:26;;;;;;;2.33;2.13;;;22.10;57.60;;;;;;5057533;28;20199;-75
2022/09/16 08:59:57;;;;;;;2.75;2.10;;;22.10;57.40;;;;;;5057470;28;20256;-75
2022/09/16 09:02:38;;;;;;;2.47;2.03;;;22.10;57.40;;;;;;5075652;28;20230;-74
2022/09/16 09:05:13;;;;;;;1.90;1.70;;;22.10;57.40;;;;;;5057634;28;20194;-75
2022/09/16 09:07:45;;;;;;;2.75;1.88;;;22.20;57.40;;;;;;5058307;28;20187;-76
2022/09/16 09:10:18;;;;;;;2.42;1.92;;;22.10;57.40;;;;;;5057415;28;20206;-75
2022/09/16 09:12:49;;;;;;;2.92;1.83;;;22.20;57.30;;;;;;5057309;28;20651;-74
2022/09/16 09:15:35;;;;;;;2.55;2.00;;;22.20;57.30;;;;;;5075182;28;20274;-74
2022/09/16 09:18:10;;;;;;;2.15;1.73;;;22.20;57.20;;;;;;5057639;28;20264;-75
2022/09/16 09:20:43;;;;;;;2.08;1.83;;;22.30;57.10;;;;;;5057930;28;20194;-75
2022/09/16 09:23:19;;;;;;;3.00;1.90;;;22.30;57.10;;;;;;5057944;28;20217;-75
2022/09/16 09:25:49;;;;;;;3.03;2.05;;;22.40;56.90;;;;;;5057950;28;20305;-75
2022/09/16 09:28:24;;;;;;;1.85;1.67;;;22.40;56.80;;;;;;5060868;28;20202;-75
2022/09/16 09:30:57;;;;;;;2.40;1.80;;;22.40;56.80;;;;;;5077276;28;20182;-76
2022/09/16 09:33:28;;;;;;;2.00;1.80;;;22.50;56.70;;;;;;5075030;28;20210;-74
2022/09/16 09:36:04;;;;;;;3.33;1.80;;;22.50;56.50;;;;;;5056692;28;20214;-74
2022/09/16 09:38:40;;;;;;;2.40;2.00;;;22.50;56.50;;;;;;5074724;28;20545;-75
2022/09/16 09:41:10;;;;;;;2.00;1.70;;;22.60;56.70;;;;;;5057005;28;20194;-75
2022/09/16 09:43:40;;;;;;;2.10;1.70;;;22.50;56.50;;;;;;5056825;28;20211;-75
2022/09/16 09:46:10;;;;;;;1.80;1.70;;;22.60;56.70;;;;;;5056575;28;20707;-76
2022/09/16 09:48:38;;;;;;;2.00;1.70;;;22.50;56.50;;;;;;5039997;28;20559;-75
2022/09/16 09:51:07;;;;;;;3.00;1.80;;;22.60;56.60;;;;;;5056347;28;20201;-75
2022/09/16 09:53:36;;;;;;;3.38;2.05;;;22.60;56.60;;;;;;5056740;28;20222;-75
2022/09/16 09:56:08;;;;;;;1.80;1.70;;;22.60;56.50;;;;;;5056341;28;20240;-75
2022/09/16 09:58:39;;;;;;;2.60;1.67;;;22.60;56.50;;;;;;5056455;28;20186;-75
2022/09/16 10:01:06;;;;;;;2.13;1.80;;;22.60;56.50;;;;;;5055533;28;20203;-74
2022/09/16 10:03:33;;;;;;;1.73;1.60;;;22.60;56.30;;;;;;5074072;28;20698;-75
2022/09/16 10:06:00;;;;;;;2.92;1.80;;;22.60;56.30;;;;;;5056116;28;20214;-76
2022/09/16 10:08:29;;;;;;;1.92;1.83;;;22.60;56.30;;;;;;5056443;28;20198;-75
2022/09/16 10:10:58;;;;;;;2.00;1.55;;;22.60;56.30;;;;;;5039724;28;20293;-74
2022/09/16 10:13:26;;;;;;;1.80;1.70;;;22.60;57.20;;;;;;5056054;28;20230;-75
2022/09/16 10:16:05;;;;;;;1.70;1.60;;;22.60;56.60;;;;;;5056008;28;20218;-75
2022/09/16 10:18:33;;;;;;;2.10;1.48;;;22.50;56.50;;;;;;5056056;28;20226;-74
2022/09/16 10:21:03;;;;;;;1.73;1.63;;;22.50;56.60;;;;;;5055953;28;20206;-75
2022/09/16 10:23:32;;;;;;;1.83;1.70;;;22.50;56.50;;;;;;5055929;28;20210;-74
2022/09/16 10:26:20;;;;;;;2.47;1.60;;;22.50;56.50;;;;;;5055725;28;20596;-76
2022/09/16 10:28:54;;;;;;;1.80;1.60;;;22.50;56.50;;;;;;5055870;28;20650;-76
2022/09/16 10:31:23;;;;;;;1.60;1.45;;;22.50;56.60;;;;;;5055950;28;20224;-75
2022/09/16 10:33:50;;;;;;;2.15;1.70;;;22.60;56.60;;;;;;5055752;28;20195;-74
2022/09/16 10:36:18;;;;;;;2.45;1.60;;;22.60;56.60;;;;;;5039131;28;20302;-75
2022/09/16 10:38:48;;;;;;;2.08;1.85;;;22.60;56.70;;;;;;5055567;28;20199;-75
2022/09/16 10:41:16;;;;;;;2.95;1.70;;;22.60;56.60;;;;;;5056018;28;20215;-76
2022/09/16 10:43:47;;;;;;;1.90;1.80;;;22.50;56.50;;;;;;5055674;28;20211;-76
2022/09/16 10:46:14;;;;;;;1.73;1.52;;;22.60;56.60;;;;;;5073529;28;20225;-74
2022/09/16 10:48:43;;;;;;;3.35;1.88;;;22.50;56.50;;;;;;5055704;28;20222;-75
2022/09/16 10:51:21;;;;;;;3.30;1.70;;;22.50;56.50;;;;;;5055551;28;20191;-74
2022/09/16 10:53:52;;;;;;;1.85;1.50;;;22.50;56.60;;;;;;5055801;28;20269;-76
2022/09/16 10:56:20;;;;;;;1.48;1.35;;;22.50;56.50;;;;;;5055597;28;20256;-76
2022/09/16 10:58:47;;;;;;;1.88;1.63;;;22.50;56.50;;;;;;5056586;28;20285;-75
2022/09/16 11:01:24;;;;;;;1.83;1.73;;;22.50;56.50;;;;;;5055449;28;20286;-75
2022/09/16 11:04:24;;;;;;;1.50;1.40;;;22.50;56.50;;;;;;5056261;28;20217;-75
2022/09/16 11:06:57;;;;;;;1.70;1.60;;;22.50;56.50;;;;;;5055416;28;20214;-75
2022/09/16 11:09:28;;;;;;;1.48;1.38;;;22.50;56.60;;;;;;5055376;28;20198;-75
2022/09/16 11:12:03;;;;;;;2.17;1.70;;;22.50;56.50;;;;;;5055600;28;20252;-75
2022/09/16 11:14:37;;;;;;;1.73;1.63;;;22.50;56.50;;;;;;5060300;28;20285;-74
2022/09/16 11:17:26;;;;;;;1.55;1.45;;;22.50;56.50;;;;;;5059370;28;20718;-75
2022/09/16 11:20:19;;;;;;;1.70;1.60;;;22.60;56.50;;;;;;5059362;28;20230;-75
2022/09/16 11:22:47;;;;;;;2.22;1.60;;;22.60;56.50;;;;;;5059323;28;20217;-75
2022/09/16 11:25:41;;;;;;;1.80;1.45;;;22.60;56.20;;;;;;5059078;28;20540;-75
2022/09/16 11:28:32;;;;;;;1.73;1.50;;;22.60;56.10;;;;;;5059298;28;20186;-75
2022/09/16 11:31:03;;;;;;;1.80;1.63;;;22.70;56.10;;;;;;5059370;28;20244;-75
2022/09/16 11:33:33;;;;;;;1.70;1.60;;;22.70;56.10;;;;;;5059319;28;20179;-75
2022/09/16 11:36:16;;;;;;;1.42;1.33;;;22.70;56.10;;;;;;5059090;28;20718;-75
2022/09/16 11:38:49;;;;;;;1.60;1.50;;;22.70;56.00;;;;;;5077226;28;20649;-75
2022/09/16 11:41:18;;;;;;;1.70;1.60;;;22.70;55.90;;;;;;5059122;28;20198;-76
2022/09/16 11:43:57;;;;;;;1.40;1.30;;;22.70;55.90;;;;;;5044197;28;20241;-75
2022/09/16 11:46:29;;;;;;;1.50;1.40;;;22.80;55.90;;;;;;5060834;28;20227;-74
2022/09/16 11:49:05;;;;;;;1.85;1.40;;;22.70;55.90;;;;;;5058971;28;20195;-75
2022/09/16 11:51:44;;;;;;;1.80;1.50;;;22.70;55.90;;;;;;5058776;28;20201;-75
2022/09/16 11:54:25;;;;;;;1.75;1.48;;;22.80;55.70;;;;;;5058939;28;20652;-75
2022/09/16 11:56:53;;;;;;;2.17;1.55;;;22.80;55.60;;;;;;5058659;28;20755;-76
2022/09/16 11:59:22;;;;;;;1.67;1.58;;;22.80;55.50;;;;;;5058708;28;20198;-76
2022/09/16 12:01:51;;;;;;;1.67;1.52;;;22.90;55.70;;;;;;5058717;28;20711;-76
2022/09/16 12:04:20;;;;;;;1.60;1.50;;;22.80;55.40;;;;;;5058455;28;20211;-75
2022/09/16 12:06:52;;;;;;;1.58;1.45;;;22.90;55.40;;;;;;5058616;28;20252;-74
2022/09/16 12:09:22;;;;;;;1.63;1.50;;;22.90;55.40;;;;;;5058350;28;20256;-75
2022/09/16 12:11:51;;;;;;;2.17;1.50;;;23.00;55.30;;;;;;5058493;28;20194;-75
2022/09/16 12:14:20;;;;;;;1.92;1.50;;;23.00;55.20;;;;;;5058315;28;20217;-76
2022/09/16 12:16:48;;;;;;;1.88;1.50;;;23.10;55.20;;;;;;5058314;28;20225;-74
2022/09/16 12:19:18;;;;;;;1.77;1.58;;;23.00;54.90;;;;;;5058286;28;20191;-76
2022/09/16 12:21:48;;;;;;;2.08;1.40;;;23.10;55.10;;;;;;5058221;28;20199;-75
2022/09/16 12:24:20;;;;;;;1.50;1.40;;;23.10;54.90;;;;;;5057310;28;20226;-76
2022/09/16 12:26:50;;;;;;;1.67;1.42;;;23.20;54.90;;;;;;5058103;28;20238;-76
2022/09/16 12:29:18;;;;;;;1.45;1.35;;;23.20;55.00;;;;;;5058050;28;20195;-75
2022/09/16 12:31:48;;;;;;;2.17;1.50;;;23.20;54.80;;;;;;5041457;28;20195;-75
2022/09/16 12:34:17;;;;;;;1.55;1.38;;;23.20;54.80;;;;;;5058155;28;20194;-76
2022/09/16 12:36:46;;;;;;;2.00;1.40;;;23.20;54.70;;;;;;5057972;28;20226;-76
2022/09/16 12:39:14;;;;;;;1.63;1.52;;;23.30;54.60;;;;;;5058843;28;20619;-74
2022/09/16 12:42:08;;;;;;;2.58;1.60;;;23.20;54.50;;;;;;5075651;28;20225;-75
2022/09/16 12:45:05;;;;;;;1.50;1.40;;;23.30;54.60;;;;;;5057668;28;20321;-74
2022/09/16 12:47:41;;;;;;;1.73;1.35;;;23.30;54.50;;;;;;5075531;28;20205;-76
2022/09/16 12:50:22;;;;;;;2.88;1.50;;;23.30;54.50;;;;;;5057673;28;20191;-76
2022/09/16 12:53:07;;;;;;;1.40;1.30;;;23.30;54.40;;;;;;5041307;28;20198;-76
2022/09/16 12:55:41;;;;;;;1.85;1.40;;;23.30;54.40;;;;;;5058740;28;20215;-74
2022/09/16 12:58:18;;;;;;;1.70;1.50;;;23.30;54.40;;;;;;5061978;28;20244;-75
2022/09/16 13:00:53;;;;;;;1.60;1.50;;;23.30;54.30;;;;;;5060196;28;20187;-75
2022/09/16 13:03:20;;;;;;;1.85;1.55;;;23.30;54.40;;;;;;5057477;28;20703;-74
2022/09/16 13:05:49;;;;;;;2.42;1.50;;;23.30;54.30;;;;;;5057476;28;20615;-75